Time;durP1;ratioP1;P1;durP2;ratioP2;P2;SDS_P1;SDS_P2;PMS_P1;PMS_P2;Temp;Humidity;BMP_temperature;BMP_pressure;BME280_temperature;BME280_humidity;BME280_pressure;Samples;Min_cycle;Max_cycle;Signal;HPM_P1;HPM_P2
2021/08/25 00:02:04;;;;;;;15.68;10.05;;;;;;;;;;5073834;28;20029;-71
2021/08/25 00:04:30;;;;;;;15.45;9.60;;;;;;;;;;5072223;28;20020;-71
2021/08/25 00:06:56;;;;;;;15.60;9.68;;;;;;;;;;5073534;28;20416;-71
2021/08/25 00:09:22;;;;;;;14.65;9.88;;;;;;;;;;5075140;28;20021;-70
2021/08/25 00:11:49;;;;;;;17.63;9.43;;;;;;;;;;5073574;28;20035;-71
2021/08/25 00:14:15;;;;;;;15.10;9.45;;;;;;;;;;5073362;28;20028;-70
2021/08/25 00:16:41;;;;;;;13.10;8.55;;;;;;;;;;5073507;28;20028;-71
2021/08/25 00:19:07;;;;;;;13.70;8.75;;;;;;;;;;5073370;28;20024;-71
2021/08/25 00:21:33;;;;;;;14.60;8.38;;;;;;;;;;5075676;28;20107;-70
2021/08/25 00:23:59;;;;;;;14.93;10.30;;;;;;;;;;5073136;28;20387;-71
2021/08/25 00:26:25;;;;;;;13.77;9.13;;;;;;;;;;5073292;28;20126;-69
2021/08/25 00:28:51;;;;;;;14.38;9.50;;;;;;;;;;5073247;28;20132;-71
2021/08/25 00:31:17;;;;;;;15.60;9.57;;;;;;;;;;5073811;28;20027;-71
2021/08/25 00:33:43;;;;;;;15.88;9.77;;;;;;;;;;5073421;28;20103;-71
2021/08/25 00:36:09;;;;;;;12.32;8.20;;;;;;;;;;5072609;28;20028;-70
2021/08/25 00:38:35;;;;;;;20.42;10.38;;;;;;;;;;5073110;28;20032;-72
2021/08/25 00:41:04;;;;;;;20.27;10.77;;;;;;;;;;5072966;28;20029;-71
2021/08/25 00:43:30;;;;;;;17.55;9.32;;;;;;;;;;5072930;28;20510;-72
2021/08/25 00:45:56;;;;;;;17.80;10.27;;;;;;;;;;5073194;28;20364;-72
2021/08/25 00:48:22;;;;;;;16.73;10.00;;;;;;;;;;5072758;28;20092;-72
2021/08/25 00:50:51;;;;;;;17.73;9.48;;;;;;;;;;5072862;28;20020;-71
2021/08/25 00:53:19;;;;;;;16.00;9.95;;;;;;;;;;5072669;28;20032;-71
2021/08/25 00:55:45;;;;;;;15.10;10.07;;;;;;;;;;5072917;28;20020;-70
2021/08/25 00:58:11;;;;;;;17.42;9.55;;;;;;;;;;5072369;28;20024;-71
2021/08/25 01:00:52;;;;;;;16.58;10.48;;;;;;;;;;5072451;28;20159;-70
2021/08/25 01:03:20;;;;;;;19.17;10.48;;;;;;;;;;5072838;28;20070;-71
2021/08/25 01:05:48;;;;;;;18.95;11.38;;;;;;;;;;5073755;28;20067;-70
2021/08/25 01:08:15;;;;;;;16.92;10.23;;;;;;;;;;5072784;28;20040;-71
2021/08/25 01:10:41;;;;;;;17.85;10.93;;;;;;;;;;5072499;28;20028;-71
2021/08/25 01:13:08;;;;;;;18.35;10.90;;;;;;;;;;5072518;28;20054;-71
2021/08/25 01:15:35;;;;;;;17.55;10.70;;;;;;;;;;5073645;28;20020;-71
2021/08/25 01:18:06;;;;;;;17.40;10.70;;;;;;;;;;5073576;28;20029;-71
2021/08/25 01:20:34;;;;;;;19.10;11.45;;;;;;;;;;5070986;28;20533;-72
2021/08/25 01:23:00;;;;;;;22.35;11.77;;;;;;;;;;5071076;28;20361;-72
2021/08/25 01:25:27;;;;;;;22.65;11.50;;;;;;;;;;5072645;28;20025;-73
2021/08/25 01:27:55;;;;;;;21.00;12.52;;;;;;;;;;5073029;28;20095;-71
2021/08/25 01:30:23;;;;;;;22.13;12.23;;;;;;;;;;5072723;28;20143;-71
2021/08/25 01:32:50;;;;;;;23.88;12.15;;;;;;;;;;5072762;28;20088;-73
2021/08/25 01:35:16;;;;;;;27.77;13.80;;;;;;;;;;5072385;28;20025;-72
2021/08/25 01:37:42;;;;;;;20.27;11.57;;;;;;;;;;5072364;28;20040;-71
2021/08/25 01:40:08;;;;;;;20.92;11.95;;;;;;;;;;5072886;28;20035;-73
2021/08/25 01:42:34;;;;;;;23.65;12.40;;;;;;;;;;5072543;28;20074;-71
2021/08/25 01:45:00;;;;;;;20.90;12.43;;;;;;;;;;5072275;28;20485;-70
2021/08/25 01:47:27;;;;;;;21.50;11.30;;;;;;;;;;5072719;28;20017;-73
2021/08/25 01:49:54;;;;;;;23.27;12.77;;;;;;;;;;5072518;28;20499;-71
2021/08/25 01:52:20;;;;;;;19.13;11.05;;;;;;;;;;5071837;28;20027;-73
2021/08/25 01:54:47;;;;;;;20.88;13.13;;;;;;;;;;5072206;28;20028;-72
2021/08/25 01:57:13;;;;;;;22.63;11.10;;;;;;;;;;5072162;28;20020;-71
2021/08/25 01:59:39;;;;;;;20.92;12.60;;;;;;;;;;5072391;28;20484;-71
2021/08/25 02:02:05;;;;;;;20.40;11.80;;;;;;;;;;5072705;28;20380;-71
2021/08/25 02:04:32;;;;;;;24.08;12.57;;;;;;;;;;5072035;28;20029;-71
2021/08/25 02:06:58;;;;;;;25.42;13.20;;;;;;;;;;5071874;28;20035;-70
2021/08/25 02:09:25;;;;;;;19.92;11.88;;;;;;;;;;5072199;28;20085;-70
2021/08/25 02:11:51;;;;;;;21.05;12.90;;;;;;;;;;5077348;28;20037;-71
2021/08/25 02:14:17;;;;;;;24.48;12.45;;;;;;;;;;5075361;28;20021;-70
2021/08/25 02:16:43;;;;;;;25.13;13.05;;;;;;;;;;5075731;28;20527;-73
2021/08/25 02:19:09;;;;;;;24.00;12.48;;;;;;;;;;5075791;28;20486;-70
2021/08/25 02:21:35;;;;;;;23.58;10.38;;;;;;;;;;5075606;28;20066;-71
2021/08/25 02:24:02;;;;;;;21.35;12.27;;;;;;;;;;5076127;28;20032;-70
2021/08/25 02:26:28;;;;;;;19.98;12.10;;;;;;;;;;5075937;28;20025;-72
2021/08/25 02:28:54;;;;;;;20.48;10.98;;;;;;;;;;5075476;28;20070;-71
2021/08/25 02:31:21;;;;;;;23.38;12.35;;;;;;;;;;5075519;28;20091;-71
2021/08/25 02:33:47;;;;;;;22.75;13.05;;;;;;;;;;5076577;28;20051;-71
2021/08/25 02:36:14;;;;;;;21.75;12.48;;;;;;;;;;5077010;28;20070;-70
2021/08/25 02:38:40;;;;;;;21.85;12.80;;;;;;;;;;5076163;28;20476;-74
2021/08/25 02:41:07;;;;;;;21.13;12.43;;;;;;;;;;5075236;28;20101;-72
2021/08/25 02:43:33;;;;;;;25.77;12.85;;;;;;;;;;5075356;28;20387;-71
2021/08/25 02:45:59;;;;;;;20.60;12.25;;;;;;;;;;5076329;28;20056;-71
2021/08/25 02:48:26;;;;;;;20.40;12.27;;;;;;;;;;5076783;28;20016;-73
2021/08/25 02:50:52;;;;;;;23.85;12.60;;;;;;;;;;5076238;28;20105;-71
2021/08/25 02:53:18;;;;;;;21.70;11.60;;;;;;;;;;5073972;28;20021;-71
2021/08/25 02:55:45;;;;;;;23.70;12.50;;;;;;;;;;5075469;28;20103;-72
2021/08/25 02:58:11;;;;;;;22.88;11.30;;;;;;;;;;5077571;28;20423;-71
2021/08/25 03:00:37;;;;;;;21.88;12.43;;;;;;;;;;5076455;28;20020;-71
2021/08/25 03:03:03;;;;;;;21.95;12.15;;;;;;;;;;5077340;28;20430;-71
2021/08/25 03:05:29;;;;;;;20.85;11.45;;;;;;;;;;5077742;28;20028;-73
2021/08/25 03:07:56;;;;;;;21.20;10.50;;;;;;;;;;5077735;28;20052;-74
2021/08/25 03:10:22;;;;;;;21.45;11.43;;;;;;;;;;5078188;28;20059;-72
2021/08/25 03:12:48;;;;;;;24.95;12.35;;;;;;;;;;5075325;28;20085;-72
2021/08/25 03:15:14;;;;;;;22.88;11.80;;;;;;;;;;5073247;28;20402;-74
2021/08/25 03:17:40;;;;;;;24.92;10.68;;;;;;;;;;5075567;28;20063;-71
2021/08/25 03:20:07;;;;;;;22.17;10.20;;;;;;;;;;5077082;28;20103;-71
2021/08/25 03:22:33;;;;;;;17.95;9.00;;;;;;;;;;5074950;28;20024;-72
2021/08/25 03:24:59;;;;;;;19.10;9.65;;;;;;;;;;5075109;28;20086;-71
2021/08/25 03:27:25;;;;;;;19.58;10.10;;;;;;;;;;5074555;28;20025;-71
2021/08/25 03:29:51;;;;;;;25.23;10.73;;;;;;;;;;5075467;28;20029;-72
2021/08/25 03:32:18;;;;;;;22.23;10.40;;;;;;;;;;5076606;28;20104;-71
2021/08/25 03:34:44;;;;;;;21.95;10.45;;;;;;;;;;5075545;28;20021;-73
2021/08/25 03:37:10;;;;;;;20.27;8.50;;;;;;;;;;5074547;28;20032;-72
2021/08/25 03:39:36;;;;;;;19.73;9.05;;;;;;;;;;5074514;28;20025;-71
2021/08/25 03:42:02;;;;;;;22.50;9.45;;;;;;;;;;5075340;28;20024;-71
2021/08/25 03:44:28;;;;;;;21.70;9.43;;;;;;;;;;5075131;28;20028;-71
2021/08/25 03:46:54;;;;;;;19.60;9.05;;;;;;;;;;5074586;28;20024;-69
2021/08/25 03:49:20;;;;;;;18.70;8.38;;;;;;;;;;5074263;28;20099;-71
2021/08/25 03:51:46;;;;;;;20.27;8.25;;;;;;;;;;5073871;28;20024;-71
2021/08/25 03:54:13;;;;;;;15.27;8.02;;;;;;;;;;5075217;28;20025;-71
2021/08/25 03:56:39;;;;;;;16.77;7.43;;;;;;;;;;5074208;28;20150;-72
2021/08/25 03:59:05;;;;;;;12.85;6.65;;;;;;;;;;5073665;28;20041;-72
2021/08/25 04:01:31;;;;;;;13.02;7.18;;;;;;;;;;5073787;28;20099;-70
2021/08/25 04:03:57;;;;;;;14.77;7.43;;;;;;;;;;5073230;28;20138;-71
2021/08/25 04:06:23;;;;;;;13.07;6.38;;;;;;;;;;5074320;28;20027;-70
2021/08/25 04:08:49;;;;;;;14.95;7.57;;;;;;;;;;5073807;28;20090;-71
2021/08/25 04:11:19;;;;;;;14.13;7.05;;;;;;;;;;5073493;28;20025;-72
2021/08/25 04:13:45;;;;;;;12.23;6.13;;;;;;;;;;5074110;28;20056;-71
2021/08/25 04:16:12;;;;;;;11.68;6.03;;;;;;;;;;5074943;28;20029;-71
2021/08/25 04:18:38;;;;;;;9.70;5.70;;;;;;;;;;5073500;28;20035;-73
2021/08/25 04:21:04;;;;;;;12.07;5.60;;;;;;;;;;5073743;28;20150;-71
2021/08/25 04:23:30;;;;;;;13.73;8.02;;;;;;;;;;5073371;28;20038;-72
2021/08/25 04:25:59;;;;;;;15.98;9.13;;;;;;;;;;5073707;28;20112;-72
2021/08/25 04:28:25;;;;;;;18.38;10.68;;;;;;;;;;5073403;28;20056;-71
2021/08/25 04:30:51;;;;;;;17.80;9.52;;;;;;;;;;5073306;28;20107;-70
2021/08/25 04:33:18;;;;;;;16.25;9.63;;;;;;;;;;5072948;28;20020;-71
2021/08/25 04:35:44;;;;;;;16.63;8.52;;;;;;;;;;5073941;28;20108;-71
2021/08/25 04:38:10;;;;;;;15.52;9.27;;;;;;;;;;5076698;28;20032;-71
2021/08/25 04:40:36;;;;;;;23.20;9.95;;;;;;;;;;5073334;28;20025;-74
2021/08/25 04:43:02;;;;;;;18.73;10.00;;;;;;;;;;5073040;28;20049;-71
2021/08/25 04:45:28;;;;;;;15.52;9.52;;;;;;;;;;5073129;28;20361;-71
2021/08/25 04:47:55;;;;;;;16.10;8.90;;;;;;;;;;5075068;28;20021;-71
2021/08/25 04:50:21;;;;;;;19.50;9.80;;;;;;;;;;5075561;28;20539;-73
2021/08/25 04:52:47;;;;;;;12.43;8.15;;;;;;;;;;5072986;28;20108;-72
2021/08/25 04:55:13;;;;;;;12.80;7.88;;;;;;;;;;5072748;28;20051;-72
2021/08/25 04:57:39;;;;;;;15.60;8.85;;;;;;;;;;5072993;28;20108;-70
2021/08/25 05:00:05;;;;;;;12.35;8.02;;;;;;;;;;5074766;28;20029;-72
2021/08/25 05:02:32;;;;;;;13.68;7.97;;;;;;;;;;5074059;28;20276;-70
2021/08/25 05:04:58;;;;;;;12.60;7.68;;;;;;;;;;5073223;28;20024;-72
2021/08/25 05:07:24;;;;;;;12.60;8.30;;;;;;;;;;5072649;28;20449;-72
2021/08/25 05:09:50;;;;;;;15.18;7.85;;;;;;;;;;5073391;28;20021;-72
2021/08/25 05:12:17;;;;;;;14.35;8.18;;;;;;;;;;5074201;28;20027;-72
2021/08/25 05:14:44;;;;;;;16.98;10.15;;;;;;;;;;5072841;28;20024;-70
2021/08/25 05:17:10;;;;;;;15.77;9.25;;;;;;;;;;5072776;28;20031;-71
2021/08/25 05:19:36;;;;;;;18.63;9.80;;;;;;;;;;5073177;28;20039;-71
2021/08/25 05:22:02;;;;;;;17.60;9.10;;;;;;;;;;5075362;28;20059;-73
2021/08/25 05:24:29;;;;;;;17.02;8.88;;;;;;;;;;5074675;28;20099;-71
2021/08/25 05:26:55;;;;;;;14.52;8.82;;;;;;;;;;5072788;28;20021;-73
2021/08/25 05:29:21;;;;;;;17.80;9.40;;;;;;;;;;5071877;28;20471;-71
2021/08/25 05:31:47;;;;;;;18.50;9.77;;;;;;;;;;5072987;28;20032;-71
2021/08/25 05:34:13;;;;;;;18.63;9.73;;;;;;;;;;5073491;28;20040;-71
2021/08/25 05:36:40;;;;;;;21.25;8.52;;;;;;;;;;5073897;28;20029;-71
2021/08/25 05:39:06;;;;;;;18.83;9.27;;;;;;;;;;5072445;28;20032;-72
2021/08/25 05:41:32;;;;;;;18.08;8.05;;;;;;;;;;5072830;28;20368;-71
2021/08/25 05:44:03;;;;;;;23.13;10.27;;;;;;;;;;5073765;28;20056;-73
2021/08/25 05:46:29;;;;;;;19.23;9.00;;;;;;;;;;5077452;28;20020;-71
2021/08/25 05:48:55;;;;;;;20.20;8.73;;;;;;;;;;5076671;28;20025;-70
2021/08/25 05:51:21;;;;;;;18.42;9.02;;;;;;;;;;5076455;28;20028;-72
2021/08/25 05:53:48;;;;;;;22.10;9.25;;;;;;;;;;5077472;28;20035;-72
2021/08/25 05:56:14;;;;;;;23.27;10.43;;;;;;;;;;5077716;28;20023;-73
2021/08/25 05:58:43;;;;;;;22.35;9.43;;;;;;;;;;5076084;28;20131;-72
2021/08/25 06:01:12;;;;;;;22.55;9.90;;;;;;;;;;5075980;28;20032;-71
2021/08/25 06:03:38;;;;;;;19.92;10.32;;;;;;;;;;5076237;28;20554;-71
2021/08/25 06:06:04;;;;;;;18.75;9.18;;;;;;;;;;5076303;28;20430;-72
2021/08/25 06:08:30;;;;;;;19.95;10.70;;;;;;;;;;5077820;28;20082;-72
2021/08/25 06:10:56;;;;;;;19.40;7.82;;;;;;;;;;5076227;28;20379;-71
2021/08/25 06:13:22;;;;;;;19.70;9.57;;;;;;;;;;5075823;28;20118;-73
2021/08/25 06:15:49;;;;;;;14.52;7.28;;;;;;;;;;5076455;28;20055;-72
2021/08/25 06:18:15;;;;;;;13.35;6.60;;;;;;;;;;5076124;28;20054;-71
2021/08/25 06:20:41;;;;;;;17.70;7.90;;;;;;;;;;5076939;28;20025;-70
2021/08/25 06:23:07;;;;;;;14.90;7.80;;;;;;;;;;5075938;28;20472;-71
2021/08/25 06:25:33;;;;;;;12.65;7.28;;;;;;;;;;5075607;28;20020;-71
2021/08/25 06:28:01;;;;;;;13.43;7.40;;;;;;;;;;5077773;28;20020;-71
2021/08/25 06:30:27;;;;;;;11.85;7.32;;;;;;;;;;5077731;28;20021;-72
2021/08/25 06:32:54;;;;;;;15.07;7.85;;;;;;;;;;5075814;28;20085;-71
2021/08/25 06:35:20;;;;;;;13.82;8.43;;;;;;;;;;5077252;28;20087;-71
2021/08/25 06:37:47;;;;;;;13.77;7.38;;;;;;;;;;5078107;28;20395;-72
2021/08/25 06:40:13;;;;;;;12.55;7.25;;;;;;;;;;5078290;28;20029;-71
2021/08/25 06:42:39;;;;;;;13.07;7.68;;;;;;;;;;5077514;28;20039;-74
2021/08/25 06:45:07;;;;;;;13.65;7.43;;;;;;;;;;5076024;28;20533;-70
2021/08/25 06:47:33;;;;;;;15.48;8.07;;;;;;;;;;5075460;28;20024;-71
2021/08/25 06:49:59;;;;;;;18.40;7.18;;;;;;;;;;5076166;28;20053;-71
2021/08/25 06:52:25;;;;;;;18.48;8.07;;;;;;;;;;5077289;28;20029;-72
2021/08/25 06:54:51;;;;;;;24.63;8.98;;;;;;;;;;5075742;28;20058;-73
2021/08/25 06:57:17;;;;;;;17.52;8.10;;;;;;;;;;5074123;28;20094;-72
2021/08/25 06:59:43;;;;;;;13.60;8.20;;;;;;;;;;5075616;28;20027;-71
2021/08/25 07:02:09;;;;;;;19.33;7.68;;;;;;;;;;5076057;28;20021;-73
2021/08/25 07:04:35;;;;;;;13.65;7.90;;;;;;;;;;5075413;28;20081;-71
2021/08/25 07:07:01;;;;;;;15.60;8.45;;;;;;;;;;5073767;28;20384;-72
2021/08/25 07:09:29;;;;;;;16.27;8.38;;;;;;;;;;5074067;28;20051;-70
2021/08/25 07:11:55;;;;;;;13.80;7.32;;;;;;;;;;5074122;28;20029;-71
2021/08/25 07:14:21;;;;;;;14.13;7.72;;;;;;;;;;5075453;28;20033;-72
2021/08/25 07:16:47;;;;;;;12.15;6.90;;;;;;;;;;5075370;28;20024;-70
2021/08/25 07:19:13;;;;;;;11.00;7.15;;;;;;;;;;5075065;28;20119;-72
2021/08/25 07:21:39;;;;;;;11.65;7.05;;;;;;;;;;5075548;28;20028;-73
2021/08/25 07:24:05;;;;;;;12.50;7.25;;;;;;;;;;5075506;28;20466;-71
2021/08/25 07:26:31;;;;;;;12.93;7.60;;;;;;;;;;5075528;28;20021;-71
2021/08/25 07:28:57;;;;;;;16.15;7.07;;;;;;;;;;5074417;28;20036;-73
2021/08/25 07:31:23;;;;;;;14.18;7.30;;;;;;;;;;5074520;28;20025;-72
2021/08/25 07:33:50;;;;;;;15.38;7.60;;;;;;;;;;5074867;28;20024;-71
2021/08/25 07:36:16;;;;;;;10.07;6.97;;;;;;;;;;5075244;28;20107;-72
2021/08/25 07:38:42;;;;;;;12.68;7.72;;;;;;;;;;5074269;28;20384;-72
2021/08/25 07:41:08;;;;;;;13.88;6.10;;;;;;;;;;5074458;28;20391;-70
2021/08/25 07:43:34;;;;;;;11.43;7.28;;;;;;;;;;5074272;28;20090;-71
2021/08/25 07:46:00;;;;;;;12.05;7.15;;;;;;;;;;5074331;28;20013;-70
2021/08/25 07:48:26;;;;;;;12.30;7.18;;;;;;;;;;5074534;28;20078;-72
2021/08/25 07:50:53;;;;;;;14.82;7.57;;;;;;;;;;5074251;28;20025;-73
2021/08/25 07:53:19;;;;;;;12.38;7.32;;;;;;;;;;5073977;28;20064;-71
2021/08/25 07:55:45;;;;;;;13.32;8.23;;;;;;;;;;5074269;28;20025;-71
2021/08/25 07:58:11;;;;;;;14.88;8.10;;;;;;;;;;5074788;28;20054;-71
2021/08/25 08:00:37;;;;;;;11.60;8.10;;;;;;;;;;5073773;28;20078;-72
2021/08/25 08:03:03;;;;;;;13.30;8.50;;;;;;;;;;5073783;28;20027;-70
2021/08/25 08:05:29;;;;;;;12.13;7.50;;;;;;;;;;5073608;28;20027;-71
2021/08/25 08:07:56;;;;;;;11.98;7.70;;;;;;;;;;5073828;28;20082;-71
2021/08/25 08:10:22;;;;;;;12.27;7.82;;;;;;;;;;5073777;28;20020;-72
2021/08/25 08:12:48;;;;;;;12.35;7.25;;;;;;;;;;5073610;28;20025;-71
2021/08/25 08:15:15;;;;;;;11.23;7.50;;;;;;;;;;5074687;28;20361;-71
2021/08/25 08:17:47;;;;;;;11.98;8.07;;;;;;;;;;5074205;28;20025;-72
2021/08/25 08:20:14;;;;;;;8.50;6.68;;;;;;;;;;5073551;28;20024;-71
2021/08/25 08:22:41;;;;;;;10.40;6.80;;;;;;;;;;5073213;28;20028;-72
2021/08/25 08:25:07;;;;;;;11.07;7.75;;;;;;;;;;5073078;28;20387;-72
2021/08/25 08:27:33;;;;;;;13.07;8.07;;;;;;;;;;5073263;28;20029;-72
2021/08/25 08:30:00;;;;;;;12.68;7.30;;;;;;;;;;5074854;28;20031;-72
2021/08/25 08:32:26;;;;;;;14.52;7.75;;;;;;;;;;5073240;28;20025;-71
2021/08/25 08:34:53;;;;;;;11.55;8.02;;;;;;;;;;5072993;28;20024;-70
2021/08/25 08:37:19;;;;;;;10.27;7.82;;;;;;;;;;5073437;28;20085;-71
2021/08/25 08:39:45;;;;;;;13.45;8.30;;;;;;;;;;5073457;28;20070;-73
2021/08/25 08:42:26;;;;;;;11.68;7.80;;;;;;;;;;5073494;28;20146;-71
2021/08/25 08:44:53;;;;;;;14.77;8.98;;;;;;;;;;5073103;28;20028;-72
2021/08/25 08:47:19;;;;;;;14.40;8.13;;;;;;;;;;5072967;28;20107;-71
2021/08/25 08:49:46;;;;;;;14.35;8.02;;;;;;;;;;5073007;28;20017;-71
2021/08/25 08:52:12;;;;;;;13.73;8.43;;;;;;;;;;5073214;28;20364;-74
2021/08/25 08:54:38;;;;;;;11.88;8.38;;;;;;;;;;5072944;28;20032;-72
2021/08/25 08:57:04;;;;;;;14.15;8.00;;;;;;;;;;5072793;28;20078;-72
2021/08/25 08:59:30;;;;;;;14.23;8.27;;;;;;;;;;5072730;28;20107;-72
2021/08/25 09:01:56;;;;;;;12.85;8.02;;;;;;;;;;5073412;28;20020;-71
2021/08/25 09:04:32;;;;;;;10.63;7.50;;;;;;;;;;5072601;28;20029;-71
2021/08/25 09:06:59;;;;;;;12.68;7.60;;;;;;;;;;5072625;28;20059;-70
2021/08/25 09:09:25;;;;;;;13.13;8.02;;;;;;;;;;5072939;28;20070;-72
2021/08/25 09:11:59;;;;;;;12.43;7.63;;;;;;;;;;5075277;28;20024;-73
2021/08/25 09:14:26;;;;;;;10.35;7.45;;;;;;;;;;5072690;28;20063;-71
2021/08/25 09:16:52;;;;;;;11.43;8.13;;;;;;;;;;5072880;28;20115;-72
2021/08/25 09:19:21;;;;;;;14.77;8.50;;;;;;;;;;5072112;28;20028;-71
2021/08/25 09:21:52;;;;;;;13.02;8.57;;;;;;;;;;5072745;28;20033;-71
2021/08/25 09:24:37;;;;;;;15.10;9.23;;;;;;;;;;5072450;28;20059;-72
2021/08/25 09:27:03;;;;;;;;;;;;;;;;;;5073025;28;20020;-72
2021/08/25 09:29:29;;;;;;;12.38;8.20;;;;;;;;;;5072730;28;19905;-72
2021/08/25 09:31:55;;;;;;;12.35;8.43;;;;;;;;;;5072615;28;20021;-72
2021/08/25 09:34:31;;;;;;;12.02;8.40;;;;;;;;;;5072667;28;20033;-71
2021/08/25 09:37:07;;;;;;;10.85;7.93;;;;;;;;;;5073220;28;20047;-70
2021/08/25 09:39:34;;;;;;;15.68;8.88;;;;;;;;;;5073473;28;20273;-72
2021/08/25 09:42:04;;;;;;;10.85;7.40;;;;;;;;;;5073686;28;20036;-71
2021/08/25 09:44:30;;;;;;;11.85;8.20;;;;;;;;;;5073336;28;20631;-72
2021/08/25 09:46:56;;;;;;;13.18;8.38;;;;;;;;;;5072790;28;20060;-71
2021/08/25 09:49:22;;;;;;;14.48;8.65;;;;;;;;;;5072422;28;20098;-72
2021/08/25 09:51:50;;;;;;;10.45;6.53;;;;;;;;;;5072521;28;20476;-71
2021/08/25 09:54:18;;;;;;;10.65;6.95;;;;;;;;;;5072541;28;20100;-71
2021/08/25 09:56:45;;;;;;;12.10;6.53;;;;;;;;;;5072406;28;20027;-70
2021/08/25 09:59:12;;;;;;;9.73;6.60;;;;;;;;;;5072175;28;20036;-72
2021/08/25 10:01:38;;;;;;;12.35;6.80;;;;;;;;;;5072252;28;20029;-72
2021/08/25 10:04:07;;;;;;;8.20;5.93;;;;;;;;;;5072842;28;20096;-71
2021/08/25 10:06:36;;;;;;;8.68;6.05;;;;;;;;;;5071884;28;20052;-72
2021/08/25 10:09:02;;;;;;;8.18;6.03;;;;;;;;;;5072033;28;20032;-71
2021/08/25 10:11:29;;;;;;;9.90;7.20;;;;;;;;;;5072111;28;20028;-71
2021/08/25 10:13:56;;;;;;;10.15;6.20;;;;;;;;;;5073114;28;20112;-71
2021/08/25 10:16:40;;;;;;;10.77;6.40;;;;;;;;;;5072311;28;20031;-72
2021/08/25 10:19:24;;;;;;;8.55;5.97;;;;;;;;;;5073337;28;20082;-71
2021/08/25 10:21:51;;;;;;;7.82;5.55;;;;;;;;;;5072293;28;20052;-72
2021/08/25 10:24:18;;;;;;;8.38;5.45;;;;;;;;;;5074140;28;20407;-72
2021/08/25 10:26:59;;;;;;;6.00;5.38;;;;;;;;;;5071880;28;20542;-72
2021/08/25 10:29:26;;;;;;;8.60;4.85;;;;;;;;;;5072007;28;20383;-72
2021/08/25 10:31:56;;;;;;;6.80;4.63;;;;;;;;;;5073327;28;20025;-72
2021/08/25 10:34:27;;;;;;;6.10;4.22;;;;;;;;;;5075791;28;20447;-72
2021/08/25 10:37:19;;;;;;;5.68;4.50;;;;;;;;;;5075372;28;20056;-72
2021/08/25 10:39:45;;;;;;;5.90;4.13;;;;;;;;;;5072334;28;20044;-71
2021/08/25 10:42:11;;;;;;;7.18;4.47;;;;;;;;;;5075830;28;20390;-71
2021/08/25 10:44:40;;;;;;;5.75;4.18;;;;;;;;;;5075732;28;20043;-72
2021/08/25 10:47:07;;;;;;;10.57;4.35;;;;;;;;;;5075255;28;20471;-72
2021/08/25 10:49:34;;;;;;;7.18;4.45;;;;;;;;;;5075186;28;20029;-72
2021/08/25 10:52:27;;;;;;;7.15;4.90;;;;;;;;;;5076590;28;20077;-73
2021/08/25 10:54:54;;;;;;;5.35;4.45;;;;;;;;;;5077485;28;20029;-73
2021/08/25 10:57:22;;;;;;;5.78;4.13;;;;;;;;;;5076741;28;20020;-71
2021/08/25 10:59:48;;;;;;;6.05;4.97;;;;;;;;;;5075167;28;20029;-71
2021/08/25 11:02:14;;;;;;;5.47;4.05;;;;;;;;;;5074933;28;20021;-71
2021/08/25 11:04:40;;;;;;;5.70;3.50;;;;;;;;;;5075061;28;20024;-71
2021/08/25 11:07:12;;;;;;;5.22;3.47;;;;;;;;;;5074899;28;20457;-72
2021/08/25 11:09:38;;;;;;;4.95;3.95;;;;;;;;;;5075118;28;20484;-72
2021/08/25 11:12:15;;;;;;;5.03;3.50;;;;;;;;;;5074740;28;20115;-71
2021/08/25 11:14:48;;;;;;;5.22;3.63;;;;;;;;;;5074792;28;20021;-71
2021/08/25 11:17:17;;;;;;;4.85;3.58;;;;;;;;;;5075061;28;20063;-72
2021/08/25 11:19:43;;;;;;;5.85;3.67;;;;;;;;;;5074472;28;20039;-72
2021/08/25 11:22:14;;;;;;;5.18;4.00;;;;;;;;;;5074546;28;20411;-72
2021/08/25 11:24:41;;;;;;;4.00;3.20;;;;;;;;;;5074259;28;20099;-71
2021/08/25 11:27:18;;;;;;;5.28;3.28;;;;;;;;;;5074414;28;20389;-71
2021/08/25 11:29:44;;;;;;;5.38;3.40;;;;;;;;;;5074752;28;20067;-72
2021/08/25 11:32:11;;;;;;;4.57;3.38;;;;;;;;;;5074466;28;20071;-72
2021/08/25 11:34:43;;;;;;;4.43;3.25;;;;;;;;;;5075141;28;20386;-72
2021/08/25 11:37:09;;;;;;;5.28;4.10;;;;;;;;;;5074242;28;20036;-72
2021/08/25 11:39:35;;;;;;;5.57;3.45;;;;;;;;;;5073908;28;20025;-72
2021/08/25 11:42:01;;;;;;;4.93;3.88;;;;;;;;;;5073914;28;20441;-71
2021/08/25 11:44:44;;;;;;;5.95;3.63;;;;;;;;;;5073611;28;20112;-71
2021/08/25 11:47:17;;;;;;;4.35;3.63;;;;;;;;;;5074155;28;20031;-72
2021/08/25 11:49:44;;;;;;;4.05;3.30;;;;;;;;;;5073797;28;20103;-71
2021/08/25 11:52:11;;;;;;;3.40;3.03;;;;;;;;;;5074006;28;20095;-74
2021/08/25 11:54:40;;;;;;;4.40;3.40;;;;;;;;;;5073610;28;20430;-73
2021/08/25 11:57:11;;;;;;;6.20;3.28;;;;;;;;;;5074279;28;20082;-72
2021/08/25 11:59:58;;;;;;;5.95;3.55;;;;;;;;;;5073793;28;20028;-71
2021/08/25 12:02:24;;;;;;;7.53;3.92;;;;;;;;;;5073407;28;20081;-71
2021/08/25 12:04:50;;;;;;;5.13;3.75;;;;;;;;;;5073315;28;20055;-71
2021/08/25 12:07:18;;;;;;;3.92;3.50;;;;;;;;;;5073205;28;20083;-71
2021/08/25 12:09:44;;;;;;;5.05;3.60;;;;;;;;;;5073366;28;20035;-70
2021/08/25 12:12:11;;;;;;;6.13;3.55;;;;;;;;;;5073694;28;20039;-72
2021/08/25 12:14:50;;;;;;;4.18;3.40;;;;;;;;;;5074828;28;20020;-71
2021/08/25 12:17:16;;;;;;;4.43;2.78;;;;;;;;;;5073111;28;20027;-72
2021/08/25 12:19:53;;;;;;;3.45;3.05;;;;;;;;;;5073394;28;20040;-73
2021/08/25 12:22:20;;;;;;;7.05;3.33;;;;;;;;;;5073918;28;20391;-72
2021/08/25 12:24:47;;;;;;;3.33;3.00;;;;;;;;;;5073269;28;20028;-72
2021/08/25 12:27:13;;;;;;;4.07;2.63;;;;;;;;;;5073233;28;20376;-71
2021/08/25 12:29:43;;;;;;;3.50;2.72;;;;;;;;;;5073330;28;20051;-71
2021/08/25 12:32:09;;;;;;;3.45;3.15;;;;;;;;;;5073772;28;20067;-70
2021/08/25 12:34:35;;;;;;;4.90;3.53;;;;;;;;;;5073881;28;20028;-71
2021/08/25 12:37:01;;;;;;;3.47;3.17;;;;;;;;;;5072438;28;20475;-71
2021/08/25 12:39:28;;;;;;;6.53;3.70;;;;;;;;;;5072693;28;20475;-72
2021/08/25 12:41:55;;;;;;;4.10;3.28;;;;;;;;;;5072885;28;20029;-72
2021/08/25 12:44:22;;;;;;;4.95;3.55;;;;;;;;;;5072917;28;20074;-71
2021/08/25 12:46:48;;;;;;;4.18;3.78;;;;;;;;;;5073086;28;20095;-70
2021/08/25 12:49:14;;;;;;;7.80;3.50;;;;;;;;;;5072755;28;20068;-72
2021/08/25 12:51:40;;;;;;;4.10;3.47;;;;;;;;;;5072809;28;20032;-72
2021/08/25 12:54:06;;;;;;;4.82;3.08;;;;;;;;;;5072311;28;20021;-72
2021/08/25 12:56:32;;;;;;;3.83;3.22;;;;;;;;;;5072656;28;20107;-72
2021/08/25 12:58:58;;;;;;;3.53;3.00;;;;;;;;;;5073236;28;20035;-71
2021/08/25 13:01:31;;;;;;;5.10;3.50;;;;;;;;;;5074952;28;20091;-74
2021/08/25 13:03:57;;;;;;;3.53;3.05;;;;;;;;;;5073320;28;20032;-73
2021/08/25 13:06:23;;;;;;;4.85;3.00;;;;;;;;;;5072473;28;20020;-72
2021/08/25 13:08:49;;;;;;;5.88;3.58;;;;;;;;;;5072593;28;20036;-73
2021/08/25 13:11:16;;;;;;;4.90;3.20;;;;;;;;;;5072990;28;20023;-72
2021/08/25 13:13:42;;;;;;;3.33;2.85;;;;;;;;;;5072456;28;20514;-73
2021/08/25 13:16:08;;;;;;;4.35;3.30;;;;;;;;;;5072770;28;20056;-73
2021/08/25 13:18:34;;;;;;;4.70;3.47;;;;;;;;;;5072460;28;20027;-74
2021/08/25 13:21:00;;;;;;;3.50;3.20;;;;;;;;;;5072862;28;20028;-72
2021/08/25 13:23:27;;;;;;;4.30;3.47;;;;;;;;;;5072326;28;20483;-73
2021/08/25 13:25:53;;;;;;;4.78;3.55;;;;;;;;;;5071010;28;20445;-72
2021/08/25 13:28:19;;;;;;;4.05;3.30;;;;;;;;;;5073881;28;20021;-72
2021/08/25 13:30:45;;;;;;;4.00;2.90;;;;;;;;;;5072433;28;20100;-72
2021/08/25 13:33:11;;;;;;;5.25;3.58;;;;;;;;;;5072360;28;20025;-74
2021/08/25 13:35:37;;;;;;;4.22;3.30;;;;;;;;;;5072755;28;20025;-73
2021/08/25 13:38:03;;;;;;;4.55;3.60;;;;;;;;;;5072468;28;20048;-73
2021/08/25 13:40:29;;;;;;;4.75;3.47;;;;;;;;;;5072074;28;20025;-73
2021/08/25 13:42:55;;;;;;;4.47;3.80;;;;;;;;;;5072271;28;20111;-74
2021/08/25 13:45:22;;;;;;;3.95;3.28;;;;;;;;;;5072102;28;20032;-72
2021/08/25 13:47:48;;;;;;;4.72;3.38;;;;;;;;;;5073441;28;20025;-73
2021/08/25 13:50:14;;;;;;;7.07;3.35;;;;;;;;;;5072073;28;20028;-73
2021/08/25 13:52:40;;;;;;;4.65;3.70;;;;;;;;;;5072073;28;20035;-72
2021/08/25 13:55:06;;;;;;;3.95;3.53;;;;;;;;;;5072404;28;20028;-74
2021/08/25 13:57:32;;;;;;;5.28;3.75;;;;;;;;;;5071928;28;20047;-73
2021/08/25 14:00:00;;;;;;;4.78;3.20;;;;;;;;;;5070803;28;20138;-72
2021/08/25 14:02:26;;;;;;;4.25;3.35;;;;;;;;;;5072152;28;20039;-75
2021/08/25 14:04:52;;;;;;;5.53;3.80;;;;;;;;;;5072202;28;20032;-73
2021/08/25 14:07:18;;;;;;;5.90;3.30;;;;;;;;;;5074749;28;20132;-73
2021/08/25 14:09:44;;;;;;;3.70;3.28;;;;;;;;;;5074435;28;20024;-74
2021/08/25 14:12:10;;;;;;;4.13;3.30;;;;;;;;;;5075742;28;20108;-74
2021/08/25 14:14:36;;;;;;;4.63;3.65;;;;;;;;;;5077675;28;20487;-74
2021/08/25 14:17:03;;;;;;;5.10;3.70;;;;;;;;;;5075717;28;20055;-75
2021/08/25 14:19:29;;;;;;;4.60;3.53;;;;;;;;;;5076104;28;20028;-72
2021/08/25 14:21:55;;;;;;;5.78;3.50;;;;;;;;;;5076324;28;20029;-73
2021/08/25 14:24:21;;;;;;;5.05;3.55;;;;;;;;;;5075496;28;20032;-72
2021/08/25 14:26:47;;;;;;;3.88;3.20;;;;;;;;;;5075617;28;20024;-72
2021/08/25 14:29:13;;;;;;;3.65;2.80;;;;;;;;;;5074952;28;20020;-73
2021/08/25 14:31:39;;;;;;;5.38;3.58;;;;;;;;;;5076570;28;20023;-73